Time;durP1;ratioP1;P1;durP2;ratioP2;P2;SDS_P1;SDS_P2;PMS_P1;PMS_P2;Temp;Humidity;BMP_temperature;BMP_pressure;BME280_temperature;BME280_humidity;BME280_pressure;Samples;Min_cycle;Max_cycle;Signal;HPM_P1;HPM_P2
2023/09/26 00:01:48;;;;;;;;;;;;;;;14.39;70.37;98646.94;5023588;28;20613;-62
2023/09/26 00:04:21;;;;;;;;;;;;;;;14.37;70.46;98641.75;5027840;28;20284;-62
2023/09/26 00:06:50;;;;;;;;;;;;;;;14.41;70.17;98641.94;5029029;28;19929;-62
2023/09/26 00:09:18;;;;;;;;;;;;;;;14.40;70.45;98643.88;5023233;28;19926;-62
2023/09/26 00:11:46;;;;;;;;;;;;;;;14.40;70.35;98632.13;5030227;28;19941;-62
2023/09/26 00:14:15;;;;;;;;;;;;;;;14.34;70.64;98641.59;5026445;28;19940;-62
2023/09/26 00:16:43;;;;;;;;;;;;;;;14.35;70.60;98630.34;5025989;28;19933;-62
2023/09/26 00:19:11;;;;;;;;;;;;;;;14.30;70.72;98626.97;5026755;28;19932;-62
2023/09/26 00:21:41;;;;;;;;;;;;;;;14.31;70.75;98620.38;5028568;28;19932;-62
2023/09/26 00:24:17;;;;;;;;;;;;;;;14.30;70.71;98619.56;5028934;28;19929;-62
2023/09/26 00:26:48;;;;;;;;;;;;;;;14.29;70.64;98617.16;5027576;28;20014;-62
2023/09/26 00:29:16;;;;;;;;;;;;;;;14.31;70.87;98617.63;5026524;28;19929;-62
2023/09/26 00:31:44;;;;;;;;;;;;;;;14.29;70.87;98617.16;5013575;28;20340;-62
2023/09/26 00:34:17;;;;;;;;;;;;;;;14.27;70.84;98611.19;5030261;28;19933;-62
2023/09/26 00:36:47;;;;;;;;;;;;;;;14.28;70.75;98618.28;5007903;28;19973;-62
2023/09/26 00:39:14;;;;;;;;;;;;;;;14.27;70.44;98616.66;5020916;28;19933;-62
2023/09/26 00:41:44;;;;;;;;;;;;;;;14.19;70.81;98615.53;5011488;28;19929;-62
2023/09/26 00:44:12;;;;;;;;;;;;;;;14.10;70.88;98617.41;5028296;28;20271;-62
2023/09/26 00:46:45;;;;;;;;;;;;;;;14.10;70.54;98626.41;5023476;28;19932;-62
2023/09/26 00:49:13;;;;;;;;;;;;;;;14.09;70.76;98624.81;5028541;28;19925;-62
2023/09/26 00:51:42;;;;;;;;;;;;;;;14.10;70.57;98622.88;5029959;28;19926;-62
2023/09/26 00:54:12;;;;;;;;;;;;;;;14.10;70.12;98626.41;5010835;28;19925;-62
2023/09/26 00:56:41;;;;;;;;;;;;;;;13.99;70.18;98636.03;5028547;28;19929;-62
2023/09/26 00:59:12;;;;;;;;;;;;;;;13.75;70.16;98625.50;5030237;28;19925;-62
2023/09/26 01:01:40;;;;;;;;;;;;;;;13.66;70.52;98637.50;5021203;28;19936;-62
2023/09/26 01:04:16;;;;;;;;;;;;;;;13.62;70.70;98627.19;5028802;28;19929;-62
2023/09/26 01:06:44;;;;;;;;;;;;;;;13.60;70.93;98623.97;5025345;28;20015;-62
2023/09/26 01:09:24;;;;;;;;;;;;;;;13.63;70.87;98623.34;5014241;28;20584;-62
2023/09/26 01:11:52;;;;;;;;;;;;;;;13.62;70.85;98621.72;5026157;28;20446;-62
2023/09/26 01:14:25;;;;;;;;;;;;;;;13.65;70.64;98623.03;5012782;28;19925;-62
2023/09/26 01:16:54;;;;;;;;;;;;;;;13.69;70.53;98615.00;5022369;28;20392;-62
2023/09/26 01:19:23;;;;;;;;;;;;;;;13.67;70.27;98612.59;5028230;28;20436;-62
2023/09/26 01:21:51;;;;;;;;;;;;;;;13.64;70.44;98615.97;5029952;28;19987;-62
2023/09/26 01:24:20;;;;;;;;;;;;;;;13.61;70.18;98609.19;5027375;28;20464;-62
2023/09/26 01:26:48;;;;;;;;;;;;;;;13.63;70.07;98611.59;5011101;28;19929;-62
2023/09/26 01:29:32;;;;;;;;;;;;;;;13.62;69.98;98613.53;5023429;28;19991;-62
2023/09/26 01:32:00;;;;;;;;;;;;;;;13.66;69.60;98621.09;5018917;28;19960;-62
2023/09/26 01:34:27;;;;;;;;;;;;;;;13.62;69.77;98619.00;5024737;28;19929;-62
2023/09/26 01:36:55;;;;;;;;;;;;;;;13.60;69.60;98621.25;5024541;28;19926;-62
2023/09/26 01:39:26;;;;;;;;;;;;;;;13.59;69.80;98616.91;5026532;28;19932;-62
2023/09/26 01:41:54;;;;;;;;;;;;;;;13.54;69.80;98614.31;5027132;28;19957;-62
2023/09/26 01:44:28;;;;;;;;;;;;;;;13.55;69.70;98615.13;5029432;28;20031;-62
2023/09/26 01:46:56;;;;;;;;;;;;;;;13.47;69.96;98619.38;5016351;28;19933;-62
2023/09/26 01:49:24;;;;;;;;;;;;;;;13.50;69.75;98618.78;5025288;28;20367;-62
2023/09/26 01:51:58;;;;;;;;;;;;;;;13.51;69.45;98614.91;5026293;28;20327;-62
2023/09/26 01:54:28;;;;;;;;;;;;;;;13.48;69.70;98621.03;5028140;28;19929;-62
2023/09/26 01:56:55;;;;;;;;;;;;;;;13.38;70.21;98620.47;5009912;28;20379;-62
2023/09/26 01:59:23;;;;;;;;;;;;;;;13.39;70.06;98622.09;4992830;28;20410;-62
2023/09/26 02:01:50;;;;;;;;;;;;;;;13.39;70.14;98627.53;5006879;28;19925;-62
2023/09/26 02:04:18;;;;;;;;;;;;;;;13.40;70.04;98619.03;5007971;28;19933;-62
2023/09/26 02:06:46;;;;;;;;;;;;;;;13.47;70.17;98622.13;4994098;28;19932;-62
2023/09/26 02:09:14;;;;;;;;;;;;;;;13.37;70.46;98603.31;5027388;28;19928;-62
2023/09/26 02:11:43;;;;;;;;;;;;;;;13.42;70.69;98610.53;5027593;28;19929;-62
2023/09/26 02:14:11;;;;;;;;;;;;;;;13.42;70.72;98608.59;5006934;28;20397;-62
2023/09/26 02:16:44;;;;;;;;;;;;;;;13.46;70.56;98601.41;5018376;28;19951;-62
2023/09/26 02:19:14;;;;;;;;;;;;;;;13.48;70.54;98604.66;5028749;28;20405;-62
2023/09/26 02:21:42;;;;;;;;;;;;;;;13.51;70.61;98605.94;5008250;28;19965;-62
2023/09/26 02:24:12;;;;;;;;;;;;;;;13.47;70.77;98607.66;5007449;28;20015;-62
2023/09/26 02:26:42;;;;;;;;;;;;;;;13.47;70.81;98607.66;5023516;28;19956;-62
2023/09/26 02:29:24;;;;;;;;;;;;;;;13.46;70.83;98598.69;5026062;28;20437;-62
2023/09/26 02:31:56;;;;;;;;;;;;;;;13.42;70.83;98605.06;5024556;28;19932;-62
2023/09/26 02:34:28;;;;;;;;;;;;;;;13.43;70.63;98607.50;5027021;28;19932;-62
2023/09/26 02:36:56;;;;;;;;;;;;;;;13.39;70.72;98601.06;5025955;28;20839;-62
2023/09/26 02:39:28;;;;;;;;;;;;;;;13.39;70.52;98605.72;4989069;28;20298;-62
2023/09/26 02:41:57;;;;;;;;;;;;;;;13.38;69.81;98604.91;5029250;28;19949;-66
2023/09/26 02:44:25;;;;;;;;;;;;;;;13.32;69.77;98600.69;5026637;28;19937;-63
2023/09/26 02:46:55;;;;;;;;;;;;;;;13.26;70.00;98604.66;5017649;28;19969;-66
2023/09/26 02:49:22;;;;;;;;;;;;;;;13.18;70.07;98597.22;5026017;28;20367;-62
2023/09/26 02:51:50;;;;;;;;;;;;;;;13.19;69.93;98594.16;5026093;28;20341;-62
2023/09/26 02:54:26;;;;;;;;;;;;;;;13.20;69.86;98598.50;5021766;28;20322;-62
2023/09/26 02:56:54;;;;;;;;;;;;;;;13.19;69.77;98596.88;5022030;28;19925;-62
2023/09/26 02:59:24;;;;;;;;;;;;;;;13.19;69.57;98605.06;5025946;28;19931;-62
2023/09/26 03:01:51;;;;;;;;;;;;;;;13.22;69.58;98603.69;5000128;28;19925;-62
2023/09/26 03:04:19;;;;;;;;;;;;;;;13.20;69.48;98606.69;5022518;28;19933;-62
2023/09/26 03:06:48;;;;;;;;;;;;;;;13.22;69.52;98600.97;5027582;28;19979;-62
2023/09/26 03:09:16;;;;;;;;;;;;;;;13.15;69.57;98608.72;5029302;28;19965;-62
2023/09/26 03:11:43;;;;;;;;;;;;;;;13.15;69.68;98600.53;5024050;28;20374;-62
2023/09/26 03:14:14;;;;;;;;;;;;;;;13.11;69.73;98606.63;5028426;28;19951;-62
2023/09/26 03:16:52;;;;;;;;;;;;;;;13.08;69.83;98609.16;5001240;28;19935;-62
2023/09/26 03:19:23;;;;;;;;;;;;;;;13.11;69.88;98612.09;5007894;28;20267;-62
2023/09/26 03:21:51;;;;;;;;;;;;;;;13.08;69.78;98606.44;5009430;28;19943;-62
2023/09/26 03:24:26;;;;;;;;;;;;;;;13.04;70.17;98606.25;5026698;28;19929;-62
2023/09/26 03:26:54;;;;;;;;;;;;;;;13.03;70.18;98603.84;5008751;28;19925;-62
2023/09/26 03:29:21;;;;;;;;;;;;;;;13.02;70.24;98594.84;5023455;28;20020;-63
2023/09/26 03:31:52;;;;;;;;;;;;;;;13.01;70.10;98606.88;4984859;28;20383;-62
2023/09/26 03:34:19;;;;;;;;;;;;;;;13.03;70.38;98607.38;5010666;28;20307;-62
2023/09/26 03:36:47;;;;;;;;;;;;;;;13.06;70.16;98601.31;5007291;28;19990;-62
2023/09/26 03:39:15;;;;;;;;;;;;;;;13.06;69.90;98606.75;5009235;28;20390;-62
2023/09/26 03:41:43;;;;;;;;;;;;;;;13.12;70.01;98601.97;5010424;28;19953;-62
2023/09/26 03:44:13;;;;;;;;;;;;;;;13.14;70.03;98601.66;5020631;28;20398;-62
2023/09/26 03:46:41;;;;;;;;;;;;;;;13.16;69.92;98594.78;5005550;28;19980;-62
2023/09/26 03:49:18;;;;;;;;;;;;;;;13.17;69.82;98593.69;5019595;28;20013;-62
2023/09/26 03:51:45;;;;;;;;;;;;;;;13.20;70.12;98594.97;5021095;28;19925;-62
2023/09/26 03:54:13;;;;;;;;;;;;;;;13.20;70.36;98590.31;5017849;28;19936;-62
2023/09/26 03:56:41;;;;;;;;;;;;;;;13.23;70.37;98597.09;5018003;28;20095;-62
2023/09/26 03:59:09;;;;;;;;;;;;;;;13.20;70.53;98593.03;5007175;28;19940;-62
2023/09/26 04:01:37;;;;;;;;;;;;;;;13.14;70.69;98597.00;5019268;28;19925;-62
2023/09/26 04:04:08;;;;;;;;;;;;;;;13.15;70.44;98600.53;5023910;28;19925;-62
2023/09/26 04:06:38;;;;;;;;;;;;;;;13.13;70.52;98600.88;5018333;28;20027;-62
2023/09/26 04:09:07;;;;;;;;;;;;;;;13.10;70.69;98604.19;5021409;28;19952;-62
2023/09/26 04:11:42;;;;;;;;;;;;;;;13.15;70.96;98603.28;5003464;28;20388;-62
2023/09/26 04:14:10;;;;;;;;;;;;;;;13.13;70.92;98600.88;5011220;28;20080;-62
2023/09/26 04:16:48;;;;;;;;;;;;;;;13.14;71.18;98596.22;5018450;28;19971;-62
2023/09/26 04:19:17;;;;;;;;;;;;;;;13.16;70.99;98599.44;5011923;28;19952;-62
2023/09/26 04:21:47;;;;;;;;;;;;;;;13.16;70.99;98596.72;5028231;28;20414;-62
2023/09/26 04:24:20;;;;;;;;;;;;;;;13.16;71.06;98597.53;5027127;28;19925;-62
2023/09/26 04:26:48;;;;;;;;;;;;;;;13.17;71.37;98595.59;5030622;28;19936;-62
2023/09/26 04:29:20;;;;;;;;;;;;;;;13.17;70.90;98592.88;5027481;28;20015;-62
2023/09/26 04:31:48;;;;;;;;;;;;;;;13.21;71.02;98593.84;5021459;28;19979;-62
2023/09/26 04:34:16;;;;;;;;;;;;;;;13.20;70.94;98593.03;5030560;28;19974;-62
2023/09/26 04:36:43;;;;;;;;;;;;;;;13.23;71.05;98588.94;5025675;28;19979;-62
2023/09/26 04:39:13;;;;;;;;;;;;;;;13.28;70.91;98595.06;5027711;28;19972;-62
2023/09/26 04:41:41;;;;;;;;;;;;;;;13.28;70.65;98586.88;5025181;28;20471;-62
2023/09/26 04:44:25;;;;;;;;;;;;;;;13.28;70.46;98594.25;5026456;28;19940;-62
2023/09/26 04:46:52;;;;;;;;;;;;;;;13.21;69.90;98589.25;5025528;28;20016;-62
2023/09/26 04:49:20;;;;;;;;;;;;;;;13.21;69.88;98596.56;5029028;28;19995;-63
2023/09/26 04:51:48;;;;;;;;;;;;;;;13.21;69.73;98591.97;5007591;28;19925;-62
2023/09/26 04:54:18;;;;;;;;;;;;;;;13.19;69.93;98599.63;5026029;28;19929;-62
2023/09/26 04:56:46;;;;;;;;;;;;;;;13.18;69.65;98599.94;5029972;28;19925;-62
2023/09/26 04:59:14;;;;;;;;;;;;;;;13.19;69.52;98596.09;5027829;28;19968;-61
2023/09/26 05:01:45;;;;;;;;;;;;;;;13.22;69.66;98595.50;5029143;28;19925;-62
2023/09/26 05:04:13;;;;;;;;;;;;;;;13.22;69.37;98592.78;5036046;28;19931;-62
2023/09/26 05:06:53;;;;;;;;;;;;;;;13.18;69.12;98591.75;5026278;28;19925;-62
2023/09/26 05:09:23;;;;;;;;;;;;;;;13.18;69.64;98598.00;5011911;28;20346;-61
2023/09/26 05:11:51;;;;;;;;;;;;;;;13.16;69.40;98602.97;5027866;28;19939;-61
2023/09/26 05:14:19;;;;;;;;;;;;;;;13.16;69.48;98602.97;5026803;28;20027;-62
2023/09/26 05:16:46;;;;;;;;;;;;;;;13.17;69.41;98598.31;5016886;28;20294;-62
2023/09/26 05:19:14;;;;;;;;;;;;;;;13.18;69.57;98594.47;5021136;28;19932;-62
2023/09/26 05:21:42;;;;;;;;;;;;;;;13.19;69.57;98596.88;5025911;28;19933;-62
2023/09/26 05:24:31;;;;;;;;;;;;;;;13.15;69.82;98595.09;5027334;28;20570;-62
2023/09/26 05:26:59;;;;;;;;;;;;;;;13.11;69.76;98587.53;5024588;28;19940;-62
2023/09/26 05:29:26;;;;;;;;;;;;;;;13.05;70.15;98596.97;5028478;28;19925;-62
2023/09/26 05:31:55;;;;;;;;;;;;;;;13.03;69.97;98587.47;5016191;28;19956;-62
2023/09/26 05:34:23;;;;;;;;;;;;;;;13.06;69.88;98597.78;5027193;28;19964;-62
2023/09/26 05:36:50;;;;;;;;;;;;;;;13.03;69.71;98595.66;5018577;28;19926;-62
2023/09/26 05:39:26;;;;;;;;;;;;;;;13.04;69.59;98589.09;5018602;28;19956;-62
2023/09/26 05:41:55;;;;;;;;;;;;;;;13.02;69.86;98592.13;5026472;28;19952;-62
2023/09/26 05:44:23;;;;;;;;;;;;;;;13.06;69.72;98589.59;5026826;28;20008;-62
2023/09/26 05:46:50;;;;;;;;;;;;;;;13.03;69.99;98593.72;5023021;28;19932;-62
2023/09/26 05:49:19;;;;;;;;;;;;;;;13.04;70.21;98592.59;5028379;28;19972;-63
2023/09/26 05:51:49;;;;;;;;;;;;;;;13.08;70.06;98601.78;5008649;28;19929;-62
2023/09/26 05:54:16;;;;;;;;;;;;;;;13.05;70.41;98607.88;5028458;28;19932;-62
2023/09/26 05:56:59;;;;;;;;;;;;;;;13.06;70.39;98601.31;5028756;28;19929;-62
2023/09/26 05:59:27;;;;;;;;;;;;;;;13.05;70.77;98604.34;5027621;28;19925;-62
2023/09/26 06:01:55;;;;;;;;;;;;;;;13.08;70.73;98611.91;5015111;28;19932;-62
2023/09/26 06:04:23;;;;;;;;;;;;;;;13.11;70.64;98611.28;5029755;28;19968;-62
2023/09/26 06:06:51;;;;;;;;;;;;;;;13.07;70.56;98600.19;5027643;28;19933;-62
2023/09/26 06:09:24;;;;;;;;;;;;;;;13.17;70.46;98610.03;5028857;28;20015;-62
2023/09/26 06:11:52;;;;;;;;;;;;;;;13.18;70.64;98603.47;5029787;28;19939;-65
2023/09/26 06:14:21;;;;;;;;;;;;;;;13.16;70.76;98602.97;5024621;28;19925;-62
2023/09/26 06:17:00;;;;;;;;;;;;;;;13.16;70.85;98610.38;5020375;28;20392;-62
2023/09/26 06:19:46;;;;;;;;;;;;;;;13.15;71.07;98612.25;5021005;28;19932;-62
2023/09/26 06:22:15;;;;;;;;;;;;;;;13.17;71.12;98620.97;5029560;28;19979;-62
2023/09/26 06:24:58;;;;;;;;;;;;;;;13.18;71.19;98610.84;5008504;28;19959;-63
2023/09/26 06:27:27;;;;;;;;;;;;;;;13.17;71.34;98618.22;5029843;28;20428;-62
2023/09/26 06:29:56;;;;;;;;;;;;;;;13.09;71.20;98618.97;5016348;28;19925;-62
2023/09/26 06:32:24;;;;;;;;;;;;;;;13.09;71.42;98619.75;5024643;28;20375;-62
2023/09/26 06:34:52;;;;;;;;;;;;;;;13.15;71.56;98614.19;5015786;28;19925;-62
2023/09/26 06:37:20;;;;;;;;;;;;;;;13.20;71.52;98619.50;5018239;28;19932;-62
2023/09/26 06:39:48;;;;;;;;;;;;;;;13.20;71.65;98625.78;5009806;28;19933;-62
2023/09/26 06:42:16;;;;;;;;;;;;;;;13.23;71.38;98614.28;5006839;28;20027;-62
2023/09/26 06:44:44;;;;;;;;;;;;;;;13.28;71.49;98616.09;5007794;28;19931;-62
2023/09/26 06:47:14;;;;;;;;;;;;;;;13.34;71.58;98620.28;5006130;28;19932;-62
2023/09/26 06:49:41;;;;;;;;;;;;;;;13.40;71.29;98621.75;5025700;28;19929;-62
2023/09/26 06:52:13;;;;;;;;;;;;;;;13.40;71.38;98624.50;5023440;28;19971;-62
2023/09/26 06:54:41;;;;;;;;;;;;;;;13.42;71.44;98624.97;5014841;28;19968;-62
2023/09/26 06:57:09;;;;;;;;;;;;;;;13.48;71.35;98625.69;5025497;28;19975;-62
2023/09/26 06:59:42;;;;;;;;;;;;;;;13.48;71.35;98625.69;5020001;28;19925;-62
2023/09/26 07:02:10;;;;;;;;;;;;;;;13.52;71.22;98616.53;5022414;28;19931;-62
2023/09/26 07:04:39;;;;;;;;;;;;;;;13.60;71.07;98626.69;5020509;28;19926;-62
2023/09/26 07:07:12;;;;;;;;;;;;;;;13.63;70.96;98626.09;5005230;28;20015;-62
2023/09/26 07:09:39;;;;;;;;;;;;;;;13.67;71.27;98611.78;5011390;28;19933;-62
2023/09/26 07:12:08;;;;;;;;;;;;;;;13.73;70.71;98616.00;5026690;28;19934;-62
2023/09/26 07:14:35;;;;;;;;;;;;;;;13.77;70.66;98612.31;5013290;28;20146;-62
2023/09/26 07:17:03;;;;;;;;;;;;;;;13.81;70.57;98615.22;5003536;28;20383;-62
2023/09/26 07:19:33;;;;;;;;;;;;;;;13.85;70.68;98616.22;5027754;28;20607;-62
2023/09/26 07:22:02;;;;;;;;;;;;;;;13.88;70.39;98612.84;5026635;28;19970;-62
2023/09/26 07:24:30;;;;;;;;;;;;;;;13.93;70.34;98617.38;5009968;28;20393;-62
2023/09/26 07:27:24;;;;;;;;;;;;;;;13.94;70.36;98614.31;5008905;28;20291;-62
2023/09/26 07:29:55;;;;;;;;;;;;;;;14.00;70.52;98620.44;5018157;28;19929;-62
2023/09/26 07:32:30;;;;;;;;;;;;;;;14.01;71.17;98611.09;5024187;28;19925;-62
2023/09/26 07:34:58;;;;;;;;;;;;;;;14.03;70.82;98608.88;5010518;28;20594;-61
2023/09/26 07:37:27;;;;;;;;;;;;;;;14.07;70.76;98615.34;5028281;28;19932;-61
2023/09/26 07:40:05;;;;;;;;;;;;;;;14.11;70.57;98619.03;5024699;28;19961;-61
2023/09/26 07:42:35;;;;;;;;;;;;;;;14.11;70.64;98622.59;5027909;28;19929;-62
2023/09/26 07:45:03;;;;;;;;;;;;;;;14.16;70.48;98621.59;5021914;28;19929;-61
2023/09/26 07:47:31;;;;;;;;;;;;;;;14.20;70.54;98619.84;5027768;28;21171;-62
2023/09/26 07:49:59;;;;;;;;;;;;;;;14.21;70.87;98623.38;5028049;28;20279;-61
2023/09/26 07:52:39;;;;;;;;;;;;;;;14.15;71.27;98623.53;5024016;28;19933;-61
2023/09/26 07:55:09;;;;;;;;;;;;;;;14.17;71.53;98620.50;5024225;28;19925;-62
2023/09/26 07:57:37;;;;;;;;;;;;;;;14.19;71.74;98617.44;5031297;28;20360;-62
2023/09/26 08:00:17;;;;;;;;;;;;;;;14.24;71.76;98617.31;5020029;28;19925;-62
2023/09/26 08:02:47;;;;;;;;;;;;;;;14.26;71.35;98623.25;5019180;28;19973;-61
2023/09/26 08:05:15;;;;;;;;;;;;;;;14.30;71.73;98619.56;5010943;28;19925;-61
2023/09/26 08:07:48;;;;;;;;;;;;;;;14.34;71.73;98622.47;5026974;28;19929;-62
2023/09/26 08:10:16;;;;;;;;;;;;;;;14.41;71.49;98622.78;5030457;28;19995;-61
2023/09/26 08:12:45;;;;;;;;;;;;;;;14.47;71.74;98607.03;5030395;28;19925;-61
2023/09/26 08:15:15;;;;;;;;;;;;;;;14.57;71.46;98613.03;5026346;28;19925;-62
2023/09/26 08:17:43;;;;;;;;;;;;;;;14.67;71.43;98601.78;5029290;28;20398;-61
2023/09/26 08:20:11;;;;;;;;;;;;;;;14.76;71.13;98609.22;5011161;28;19996;-62
2023/09/26 08:22:41;;;;;;;;;;;;;;;14.77;70.55;98605.34;5031759;28;19929;-61
2023/09/26 08:25:25;;;;;;;;;;;;;;;14.81;70.40;98607.13;5008869;28;19941;-61
2023/09/26 08:27:53;;;;;;;;;;;;;;;14.89;70.17;98608.22;5024065;28;19972;-61
2023/09/26 08:30:21;;;;;;;;;;;;;;;14.92;70.59;98602.13;5023174;28;19925;-62
2023/09/26 08:32:49;;;;;;;;;;;;;;;15.01;70.24;98607.56;5029794;28;19925;-61
2023/09/26 08:35:17;;;;;;;;;;;;;;;15.06;70.19;98600.00;5030642;28;19959;-61
2023/09/26 08:37:44;;;;;;;;;;;;;;;15.13;70.20;98597.59;5028920;28;20371;-61
2023/09/26 08:40:13;;;;;;;;;;;;;;;15.21;70.18;98598.69;5017135;28;19932;-61
2023/09/26 08:42:45;;;;;;;;;;;;;;;15.26;70.16;98589.50;5003051;28;19925;-61
2023/09/26 08:45:15;;;;;;;;;;;;;;;15.32;70.40;98594.47;5019414;28;19995;-61
2023/09/26 08:47:43;;;;;;;;;;;;;;;15.38;70.38;98592.38;5022835;28;20362;-61
2023/09/26 08:50:11;;;;;;;;;;;;;;;15.49;70.48;98592.81;5014290;28;20469;-61
2023/09/26 08:52:39;;;;;;;;;;;;;;;15.59;70.60;98587.00;5022128;28;19935;-62
2023/09/26 08:55:09;;;;;;;;;;;;;;;15.68;70.40;98590.53;5018271;28;20337;-61
2023/09/26 08:57:37;;;;;;;;;;;;;;;15.74;70.54;98591.97;5023232;28;19925;-61
2023/09/26 09:00:07;;;;;;;;;;;;;;;15.81;70.41;98589.50;5018747;28;19925;-63
2023/09/26 09:02:41;;;;;;;;;;;;;;;15.88;70.02;98589.81;5016344;28;20309;-62
2023/09/26 09:05:09;;;;;;;;;;;;;;;15.96;70.12;98585.44;5029432;28;19947;-62
2023/09/26 09:07:38;;;;;;;;;;;;;;;15.97;69.97;98587.81;5030260;28;19925;-62
2023/09/26 09:10:06;;;;;;;;;;;;;;;16.04;69.97;98581.84;5018659;28;20364;-62
2023/09/26 09:12:35;;;;;;;;;;;;;;;16.12;70.03;98582.91;5010891;28;19949;-62
2023/09/26 09:15:06;;;;;;;;;;;;;;;16.21;69.99;98586.44;5015835;28;19932;-62
2023/09/26 09:17:42;;;;;;;;;;;;;;;16.27;69.97;98579.59;5029153;28;20187;-61
2023/09/26 09:20:29;;;;;;;;;;;;;;;16.36;69.76;98582.31;5015339;28;19929;-62
2023/09/26 09:23:03;;;;;;;;;;;;;;;16.37;69.79;98578.41;5025276;28;19925;-62
2023/09/26 09:25:33;;;;;;;;;;;;;;;16.44;69.66;98564.97;5027390;28;19925;-62
2023/09/26 09:28:03;;;;;;;;;;;;;;;16.50;69.32;98560.88;5012387;28;19964;-62
2023/09/26 09:30:37;;;;;;;;;;;;;;;16.55;69.26;98563.44;5006634;28;19925;-62
2023/09/26 09:33:06;;;;;;;;;;;;;;;16.61;69.16;98564.03;5028074;28;19929;-61
2023/09/26 09:35:34;;;;;;;;;;;;;;;16.64;69.95;98561.44;5011241;28;19925;-62
2023/09/26 09:38:02;;;;;;;;;;;;;;;16.70;69.82;98560.09;5020025;28;20405;-62
2023/09/26 09:40:30;;;;;;;;;;;;;;;16.76;70.17;98553.28;5030156;28;19926;-62
2023/09/26 09:42:57;;;;;;;;;;;;;;;16.82;69.98;98545.66;5023516;28;19971;-62
2023/09/26 09:45:26;;;;;;;;;;;;;;;16.87;69.78;98542.69;5025068;28;19928;-62
2023/09/26 09:47:54;;;;;;;;;;;;;;;16.92;70.19;98549.91;5021690;28;19929;-62
2023/09/26 09:50:23;;;;;;;;;;;;;;;16.97;70.23;98544.22;5023449;28;19925;-62
2023/09/26 09:53:01;;;;;;;;;;;;;;;17.06;69.71;98541.41;5029091;28;20370;-62
2023/09/26 09:55:32;;;;;;;;;;;;;;;17.07;69.79;98535.56;5026026;28;19933;-62
2023/09/26 09:58:02;;;;;;;;;;;;;;;17.16;69.50;98544.53;5018038;28;19936;-62
2023/09/26 10:00:31;;;;;;;;;;;;;;;17.19;68.92;98538.34;5019564;28;19979;-62
2023/09/26 10:03:18;;;;;;;;;;;;;;;17.23;68.92;98541.22;5010160;28;19937;-62
2023/09/26 10:05:47;;;;;;;;;;;;;;;17.27;68.82;98540.19;5010915;28;19948;-62
2023/09/26 10:08:23;;;;;;;;;;;;;;;17.32;68.22;98538.38;5026763;28;20563;-62
2023/09/26 10:10:50;;;;;;;;;;;;;;;17.37;68.18;98527.19;5027687;28;19960;-62
2023/09/26 10:13:19;;;;;;;;;;;;;;;17.38;66.86;98532.31;5017245;28;19929;-63
2023/09/26 10:16:05;;;;;;;;;;;;;;;17.44;66.99;98524.66;5010995;28;19925;-62
2023/09/26 10:18:33;;;;;;;;;;;;;;;17.46;67.21;98525.13;5017794;28;19925;-62
2023/09/26 10:21:23;;;;;;;;;;;;;;;17.49;66.66;98522.50;5021779;28;19944;-64
2023/09/26 10:24:17;;;;;;;;;;;;;;;17.54;66.22;98521.47;5021853;28;20394;-62
2023/09/26 10:26:58;;;;;;;;;;;;;;;17.62;67.83;98522.50;5026860;28;19933;-63
2023/09/26 10:29:32;;;;;;;;;;;;;;;17.67;66.95;98525.00;5027302;28;19931;-63
2023/09/26 10:32:04;;;;;;;;;;;;;;;17.74;67.93;98515.09;5013271;28;19932;-63
2023/09/26 10:34:35;;;;;;;;;;;;;;;17.88;67.32;98514.75;5006563;28;20768;-62
2023/09/26 10:37:20;;;;;;;;;;;;;;;17.96;66.92;98508.34;5011001;28;20452;-63
2023/09/26 10:39:48;;;;;;;;;;;;;;;17.99;66.87;98510.38;5029901;28;19929;-62
2023/09/26 10:42:20;;;;;;;;;;;;;;;18.05;66.27;98519.19;5027710;28;19933;-63
2023/09/26 10:44:54;;;;;;;;;;;;;;;18.06;67.15;98507.88;5028989;28;20015;-63
2023/09/26 10:47:24;;;;;;;;;;;;;;;18.17;66.69;98510.94;5003190;28;19925;-63
2023/09/26 10:49:52;;;;;;;;;;;;;;;18.22;66.69;98491.44;5030667;28;19932;-62
2023/09/26 10:52:29;;;;;;;;;;;;;;;18.22;66.25;98490.66;5026826;28;20035;-62
2023/09/26 10:54:57;;;;;;;;;;;;;;;18.23;65.99;98492.25;5028476;28;20016;-63
2023/09/26 10:57:46;;;;;;;;;;;;;;;18.23;65.57;98490.28;5008914;28;20272;-63
2023/09/26 11:00:14;;;;;;;;;;;;;;;18.21;65.44;98489.81;5022478;28;19925;-63
2023/09/26 11:02:42;;;;;;;;;;;;;;;18.23;64.79;98501.28;5027455;28;19948;-63
2023/09/26 11:05:11;;;;;;;;;;;;;;;18.22;63.81;98493.41;5028549;28;20558;-62
2023/09/26 11:07:47;;;;;;;;;;;;;;;18.26;65.97;98492.34;5027276;28;19925;-63
2023/09/26 11:10:15;;;;;;;;;;;;;;;18.31;65.19;98494.03;5029068;28;19979;-63
2023/09/26 11:13:03;;;;;;;;;;;;;;;18.31;63.93;98494.84;5024236;28;20406;-63
2023/09/26 11:15:40;;;;;;;;;;;;;;;18.37;64.62;98489.09;5012121;28;19926;-63
2023/09/26 11:18:14;;;;;;;;;;;;;;;18.43;66.07;98485.78;5014056;28;19929;-63
2023/09/26 11:21:03;;;;;;;;;;;;;;;18.49;65.54;98484.38;5029916;28;19932;-63
2023/09/26 11:23:51;;;;;;;;;;;;;;;18.51;63.97;98481.25;5025762;28;20382;-62
2023/09/26 11:26:19;;;;;;;;;;;;;;;18.55;63.74;98482.97;5012697;28;19936;-63
2023/09/26 11:28:48;;;;;;;;;;;;;;;18.61;65.54;98491.78;5031178;28;20024;-63
2023/09/26 11:31:16;;;;;;;;;;;;;;;18.69;65.64;98490.03;5003051;28;19932;-63
2023/09/26 11:33:43;;;;;;;;;;;;;;;18.70;65.32;98484.22;5022073;28;19925;-62
2023/09/26 11:36:17;;;;;;;;;;;;;;;18.79;65.18;98476.56;5020434;28;19936;-65
2023/09/26 11:38:48;;;;;;;;;;;;;;;18.84;64.36;98478.28;5027125;28;19925;-63
2023/09/26 11:41:16;;;;;;;;;;;;;;;18.84;64.19;98473.56;5012204;28;21535;-62
2023/09/26 11:43:52;;;;;;;;;;;;;;;18.85;64.28;98460.59;5027264;28;20354;-62
2023/09/26 11:46:20;;;;;;;;;;;;;;;18.84;63.91;98461.75;5016733;28;19931;-62
2023/09/26 11:48:48;;;;;;;;;;;;;;;18.84;64.10;98462.56;5025417;28;19940;-61
2023/09/26 11:51:22;;;;;;;;;;;;;;;18.85;63.15;98457.84;5031691;28;19979;-62
2023/09/26 11:53:51;;;;;;;;;;;;;;;18.89;64.56;98453.25;5026137;28;19933;-62
2023/09/26 11:56:18;;;;;;;;;;;;;;;18.91;63.69;98450.13;5028779;28;20528;-62
2023/09/26 11:58:46;;;;;;;;;;;;;;;18.91;63.30;98455.63;5024349;28;19925;-62
2023/09/26 12:01:15;;;;;;;;;;;;;;;18.97;64.83;98449.53;5011760;28;19925;-62
2023/09/26 12:03:43;;;;;;;;;;;;;;;19.02;64.61;98449.28;5002805;28;19933;-63
2023/09/26 12:06:11;;;;;;;;;;;;;;;19.10;64.66;98448.28;5004055;28;19926;-62
2023/09/26 12:08:44;;;;;;;;;;;;;;;19.15;62.58;98443.69;5007508;28;19933;-62
2023/09/26 12:11:25;;;;;;;;;;;;;;;19.17;61.46;98444.91;5004169;28;19977;-62
2023/09/26 12:13:53;;;;;;;;;;;;;;;19.22;63.27;98438.34;5011504;28;20371;-62
2023/09/26 12:16:23;;;;;;;;;;;;;;;19.23;62.02;98440.75;4993105;28;19926;-63
2023/09/26 12:18:54;;;;;;;;;;;;;;;19.28;61.01;98439.69;5003786;28;19926;-62
2023/09/26 12:21:33;;;;;;;;;;;;;;;19.29;61.30;98436.59;5006792;28;19925;-62
2023/09/26 12:24:10;;;;;;;;;;;;;;;19.32;61.60;98435.06;5006454;28;19957;-62
2023/09/26 12:26:46;;;;;;;;;;;;;;;19.42;62.44;98428.22;5011591;28;20280;-62
2023/09/26 12:29:14;;;;;;;;;;;;;;;19.48;62.16;98433.09;5000578;28;19926;-62
2023/09/26 12:31:44;;;;;;;;;;;;;;;19.47;61.80;98423.22;4986855;28;19929;-62
2023/09/26 12:34:21;;;;;;;;;;;;;;;19.51;61.38;98412.31;4986643;28;20170;-62
2023/09/26 12:36:49;;;;;;;;;;;;;;;19.55;60.42;98415.94;4993768;28;19925;-62
2023/09/26 12:39:17;;;;;;;;;;;;;;;19.62;62.92;98419.69;5009734;28;19988;-62
2023/09/26 12:41:55;;;;;;;;;;;;;;;19.73;61.77;98414.41;5007323;28;19933;-63
2023/09/26 12:44:23;;;;;;;;;;;;;;;19.77;62.40;98409.00;4999897;28;19936;-62
2023/09/26 12:46:56;;;;;;;;;;;;;;;19.79;62.10;98409.41;5002942;28;19926;-62
2023/09/26 12:49:24;;;;;;;;;;;;;;;19.76;61.78;98408.19;4981349;28;19933;-62
2023/09/26 12:52:10;;;;;;;;;;;;;;;19.73;60.36;98411.66;4989747;28;19929;-62
2023/09/26 12:54:38;;;;;;;;;;;;;;;19.74;60.71;98410.50;5011216;28;19933;-62
2023/09/26 12:57:11;;;;;;;;;;;;;;;19.70;60.68;98406.84;4996073;28;19934;-62
2023/09/26 12:59:43;;;;;;;;;;;;;;;19.70;61.31;98406.84;5007394;28;20394;-62
2023/09/26 13:02:13;;;;;;;;;;;;;;;19.71;60.74;98405.72;5001654;28;19925;-62
2023/09/26 13:04:52;;;;;;;;;;;;;;;19.72;60.55;98401.78;5007022;28;20178;-62
2023/09/26 13:07:20;;;;;;;;;;;;;;;19.77;60.55;98393.25;4995601;28;19933;-63